Time;durP1;ratioP1;P1;durP2;ratioP2;P2;SDS_P1;SDS_P2;PMS_P1;PMS_P2;Temp;Humidity;BMP_temperature;BMP_pressure;BME280_temperature;BME280_humidity;BME280_pressure;Samples;Min_cycle;Max_cycle;Signal;HPM_P1;HPM_P2
2022/01/06 00:00:58;;;;;;;12.05;3.17;;;;;;;7.50;66.09;101499.38;5075549;28;20041;-67
2022/01/06 00:03:27;;;;;;;12.88;3.95;;;;;;;7.49;66.18;101503.06;5073750;28;20044;-68
2022/01/06 00:05:57;;;;;;;12.50;2.83;;;;;;;7.47;66.14;101494.41;5073690;28;20044;-67
2022/01/06 00:08:24;;;;;;;11.95;3.17;;;;;;;7.46;66.39;101504.25;5078008;28;20056;-67
2022/01/06 00:10:52;;;;;;;11.20;2.55;;;;;;;7.45;66.53;101507.94;5078894;28;20041;-67
2022/01/06 00:13:25;;;;;;;9.52;3.00;;;;;;;7.46;65.90;101511.47;5068390;28;20067;-67
2022/01/06 00:16:11;;;;;;;13.65;3.53;;;;;;;7.47;65.91;101518.47;5069473;28;20063;-67
2022/01/06 00:24:07;;;;;;;12.60;3.10;;;;;;;7.45;65.80;101509.78;5068179;28;20160;-67
2022/01/06 00:26:35;;;;;;;16.60;3.35;;;;;;;7.45;66.12;101526.66;5065314;28;20055;-68
2022/01/06 00:29:03;;;;;;;9.95;3.35;;;;;;;7.42;65.68;101520.88;5073614;28;20072;-67
2022/01/06 00:31:32;;;;;;;11.07;2.85;;;;;;;7.42;65.99;101526.22;5077626;28;20148;-67
2022/01/06 00:33:59;;;;;;;11.57;3.60;;;;;;;7.41;65.72;101528.06;5068158;28;20049;-67
2022/01/06 00:36:29;;;;;;;18.33;4.18;;;;;;;7.40;65.78;101522.88;5067059;28;20052;-68
2022/01/06 00:38:57;;;;;;;12.65;3.05;;;;;;;7.40;66.18;101526.41;5068749;28;20108;-67
2022/01/06 00:41:25;;;;;;;13.27;2.70;;;;;;;7.41;65.29;101519.19;5072141;28;20106;-67
2022/01/06 00:43:53;;;;;;;13.05;2.97;;;;;;;7.38;65.78;101523.06;5070921;28;20056;-67
2022/01/06 00:46:21;;;;;;;12.57;3.35;;;;;;;7.35;65.74;101526.13;5074865;28;20125;-67
2022/01/06 00:48:49;;;;;;;8.35;2.70;;;;;;;7.37;65.54;101532.09;5076222;28;20467;-67
2022/01/06 00:51:16;;;;;;;11.80;2.30;;;;;;;7.34;65.80;101543.19;5065727;28;20080;-67
2022/01/06 00:53:46;;;;;;;11.27;3.25;;;;;;;7.33;65.52;101540.69;5069982;28;20103;-67
2022/01/06 00:56:13;;;;;;;11.93;3.05;;;;;;;7.34;65.40;101542.34;5068960;28;20057;-67
2022/01/06 00:58:41;;;;;;;12.10;5.00;;;;;;;7.33;65.45;101541.50;5077536;28;20055;-67
2022/01/06 01:01:09;;;;;;;11.75;2.20;;;;;;;7.33;65.76;101538.84;5081551;28;20513;-67
2022/01/06 01:03:37;;;;;;;11.30;3.10;;;;;;;7.28;65.75;101541.22;5080929;28;20568;-67
2022/01/06 01:06:04;;;;;;;12.10;3.28;;;;;;;7.31;65.77;101542.72;5060606;28;20055;-67
2022/01/06 01:08:34;;;;;;;8.90;3.03;;;;;;;7.30;65.91;101541.06;5064261;28;20076;-67
2022/01/06 01:11:03;;;;;;;13.23;3.10;;;;;;;7.29;65.76;101548.25;5072637;28;20486;-67
2022/01/06 01:13:32;;;;;;;14.63;2.92;;;;;;;7.29;65.44;101552.75;5075707;28;20757;-67
2022/01/06 01:16:10;;;;;;;12.45;2.75;;;;;;;7.29;65.73;101552.75;5063090;28;20044;-67
2022/01/06 01:18:44;;;;;;;9.88;2.53;;;;;;;7.27;65.13;101544.09;5070448;28;20112;-67
2022/01/06 01:21:13;;;;;;;13.05;3.67;;;;;;;7.22;65.54;101541.13;5076976;28;20060;-67
2022/01/06 01:23:41;;;;;;;18.27;2.58;;;;;;;7.23;65.34;101545.47;5067397;28;20083;-67
2022/01/06 01:26:10;;;;;;;17.35;3.92;;;;;;;7.25;65.54;101551.47;5073371;28;20069;-67
2022/01/06 01:28:43;;;;;;;10.93;3.63;;;;;;;7.25;65.40;101560.31;5064434;28;20322;-67
2022/01/06 01:31:24;;;;;;;12.43;3.10;;;;;;;7.25;65.18;101559.47;5067230;28;20044;-67
2022/01/06 01:33:57;;;;;;;12.50;2.45;;;;;;;7.24;65.35;101555.16;5066186;28;20057;-67
2022/01/06 01:36:25;;;;;;;12.45;3.03;;;;;;;7.22;65.12;101558.00;5061015;28;20049;-67
2022/01/06 01:38:53;;;;;;;14.40;3.40;;;;;;;7.21;65.43;101555.50;5064946;28;20483;-67
2022/01/06 01:41:22;;;;;;;14.65;3.05;;;;;;;7.21;65.39;101558.19;5072272;28;20060;-67
2022/01/06 01:43:50;;;;;;;13.82;3.47;;;;;;;7.19;65.60;101561.88;5072049;28;20040;-68
2022/01/06 01:46:20;;;;;;;10.63;2.97;;;;;;;7.20;64.79;101565.38;5064672;28;20045;-68
2022/01/06 01:49:06;;;;;;;17.58;3.38;;;;;;;7.16;65.05;101567.59;5077841;28;20072;-67
2022/01/06 01:51:34;;;;;;;9.88;2.63;;;;;;;7.18;65.58;101583.44;5061204;28;20045;-67
2022/01/06 01:54:02;;;;;;;8.07;2.42;;;;;;;7.21;65.60;101587.59;5084549;28;20059;-67
2022/01/06 01:56:31;;;;;;;17.15;4.50;;;;;;;7.19;65.06;101587.78;5058162;28;20052;-67
2022/01/06 01:58:59;;;;;;;16.35;4.10;;;;;;;7.17;64.78;101598.66;5063771;28;20045;-68
2022/01/06 02:01:26;;;;;;;17.73;3.10;;;;;;;7.08;65.40;101585.53;5064235;28;20505;-67
2022/01/06 02:03:55;;;;;;;11.98;3.28;;;;;;;7.17;65.20;101603.16;5081377;28;20070;-67
2022/01/06 02:06:23;;;;;;;13.45;2.90;;;;;;;7.16;65.13;101606.84;5063123;28;20052;-68
2022/01/06 02:08:52;;;;;;;14.32;3.40;;;;;;;7.14;65.15;101603.53;5061494;28;20053;-67
2022/01/06 02:11:19;;;;;;;11.02;3.78;;;;;;;7.14;64.81;101604.34;5054183;28;20071;-67
2022/01/06 02:13:49;;;;;;;14.95;4.15;;;;;;;7.11;64.96;101604.72;5065797;28;20052;-67
2022/01/06 02:16:21;;;;;;;12.55;4.10;;;;;;;7.12;65.11;101605.53;5063928;28;20044;-67
2022/01/06 02:18:49;;;;;;;10.70;2.92;;;;;;;7.11;65.02;101603.88;5064536;28;20041;-68
2022/01/06 02:21:18;;;;;;;15.75;3.30;;;;;;;7.09;64.92;101603.25;5063195;28;20140;-67
2022/01/06 02:23:46;;;;;;;14.55;3.65;;;;;;;7.06;64.96;101604.44;5064234;28;20044;-67
2022/01/06 02:26:15;;;;;;;15.68;3.65;;;;;;;7.06;64.75;101606.28;5063439;28;20067;-67
2022/01/06 02:28:43;;;;;;;12.60;2.83;;;;;;;7.06;64.82;101608.94;5064896;28;20072;-67
2022/01/06 02:31:10;;;;;;;14.35;3.03;;;;;;;7.07;64.94;101613.28;5073172;28;20044;-67
2022/01/06 02:33:38;;;;;;;13.75;2.90;;;;;;;7.06;65.25;101608.94;5071012;28;20087;-67
2022/01/06 02:36:06;;;;;;;10.88;3.80;;;;;;;7.00;65.19;101602.47;5063740;28;20565;-67
2022/01/06 02:38:36;;;;;;;13.35;4.30;;;;;;;7.02;65.26;101599.63;5053787;28;20056;-67
2022/01/06 02:41:03;;;;;;;12.65;3.10;;;;;;;7.04;65.10;101602.94;5064697;28;20077;-67
2022/01/06 02:43:31;;;;;;;7.55;2.50;;;;;;;7.03;64.97;101604.78;5076400;28;20052;-67
2022/01/06 02:45:59;;;;;;;18.58;3.35;;;;;;;7.03;65.09;101604.78;5066796;28;20049;-67
2022/01/06 02:48:27;;;;;;;12.93;2.92;;;;;;;7.01;65.11;101597.97;5065569;28;20072;-67
2022/01/06 02:50:55;;;;;;;18.05;3.75;;;;;;;6.92;64.78;101596.41;5080129;28;20051;-67
2022/01/06 02:53:23;;;;;;;14.18;3.28;;;;;;;7.00;64.49;101615.00;5068863;28;20176;-67
2022/01/06 02:55:53;;;;;;;18.08;3.08;;;;;;;6.99;64.62;101608.00;5070839;28;20083;-68
2022/01/06 02:58:41;;;;;;;9.63;3.20;;;;;;;6.98;64.87;101607.16;5071245;28;20116;-67
2022/01/06 03:01:08;;;;;;;11.95;2.78;;;;;;;6.97;65.00;101608.19;5063449;28;20048;-67
2022/01/06 03:03:36;;;;;;;11.10;3.25;;;;;;;6.98;64.93;101609.84;5064920;28;20075;-67
2022/01/06 03:06:04;;;;;;;11.85;2.35;;;;;;;6.98;65.01;101606.34;5064612;28;20487;-67
2022/01/06 03:08:34;;;;;;;11.10;2.75;;;;;;;6.96;64.95;101611.03;5062821;28;20111;-67
2022/01/06 03:11:03;;;;;;;16.08;2.85;;;;;;;6.96;64.71;101614.53;5067177;28;20068;-67
2022/01/06 03:13:30;;;;;;;15.90;3.28;;;;;;;6.95;64.45;101617.38;5055430;28;20056;-67
2022/01/06 03:15:59;;;;;;;16.83;2.97;;;;;;;6.92;64.97;101626.63;5067053;28;20421;-68
2022/01/06 03:18:26;;;;;;;9.43;2.85;;;;;;;6.94;64.74;101629.91;5067180;28;20099;-67
2022/01/06 03:20:54;;;;;;;14.55;3.30;;;;;;;6.92;64.67;101628.47;5063153;28;20089;-67
2022/01/06 03:23:22;;;;;;;19.70;3.22;;;;;;;6.91;64.63;101627.63;5063084;28;20056;-67
2022/01/06 03:25:50;;;;;;;12.40;4.18;;;;;;;6.92;64.70;101629.28;5056820;28;20080;-67
2022/01/06 03:28:19;;;;;;;11.68;2.50;;;;;;;6.91;64.55;101622.28;5064853;28;20083;-67
2022/01/06 03:30:46;;;;;;;9.68;2.72;;;;;;;6.91;64.52;101629.47;5062929;28;20040;-67
2022/01/06 03:33:14;;;;;;;15.32;3.35;;;;;;;6.89;64.72;101632.31;5062358;28;20072;-67
2022/01/06 03:35:42;;;;;;;12.38;3.00;;;;;;;6.88;64.63;101635.16;5064293;28;20080;-67
2022/01/06 03:38:09;;;;;;;13.82;2.55;;;;;;;6.88;64.94;101640.50;5058326;28;20045;-68
2022/01/06 03:40:39;;;;;;;9.95;2.80;;;;;;;6.88;64.96;101640.50;5062732;28;20077;-67
2022/01/06 03:43:07;;;;;;;12.40;2.60;;;;;;;6.87;64.96;101645.03;5079201;28;20131;-67
2022/01/06 03:45:36;;;;;;;13.57;3.00;;;;;;;6.87;64.76;101644.19;5068872;28;20443;-67
2022/01/06 03:48:04;;;;;;;13.10;3.42;;;;;;;6.85;64.71;101642.53;5069657;28;20135;-67
2022/01/06 03:50:32;;;;;;;8.35;2.38;;;;;;;6.86;64.93;101646.03;5063484;28;20064;-67
2022/01/06 03:53:00;;;;;;;12.45;2.55;;;;;;;6.85;64.61;101644.38;5065500;28;20056;-67
2022/01/06 03:55:28;;;;;;;13.68;2.50;;;;;;;6.86;64.74;101646.03;5074078;28;20499;-67
2022/01/06 03:57:55;;;;;;;14.52;3.47;;;;;;;6.85;64.29;101647.03;5061893;28;20084;-68
2022/01/06 04:00:23;;;;;;;11.73;2.72;;;;;;;6.84;64.18;101654.22;5062502;28;20399;-67
2022/01/06 04:02:52;;;;;;;13.82;3.63;;;;;;;6.84;64.65;101656.06;5062718;28;20044;-68
2022/01/06 04:05:20;;;;;;;20.60;4.82;;;;;;;6.83;64.61;101657.91;5067513;28;20049;-68
2022/01/06 04:07:48;;;;;;;9.95;3.00;;;;;;;6.83;64.19;101662.41;5060504;28;20434;-67
2022/01/06 04:10:16;;;;;;;11.20;2.65;;;;;;;6.82;64.47;101658.09;5062159;28;20087;-68
2022/01/06 04:12:43;;;;;;;10.50;2.53;;;;;;;6.81;64.61;101662.59;5053371;28;20064;-67
2022/01/06 04:15:13;;;;;;;11.18;2.60;;;;;;;6.80;64.88;101665.44;5061894;28;20164;-67
2022/01/06 04:17:42;;;;;;;11.15;3.00;;;;;;;6.79;64.68;101663.78;5081219;28;20110;-67
2022/01/06 04:20:13;;;;;;;7.22;2.70;;;;;;;6.77;64.32;101665.81;5072801;28;20144;-67
2022/01/06 04:22:42;;;;;;;11.68;3.13;;;;;;;6.77;64.69;101671.16;5061376;28;20036;-67
2022/01/06 04:25:10;;;;;;;10.85;3.03;;;;;;;6.77;64.60;101671.97;5061734;28;20049;-67
2022/01/06 04:27:39;;;;;;;8.48;2.22;;;;;;;6.66;64.80;101661.69;5071979;28;20048;-68
2022/01/06 04:30:08;;;;;;;12.85;2.15;;;;;;;6.77;64.77;101676.47;5080102;28;20517;-67
2022/01/06 04:32:36;;;;;;;8.65;2.80;;;;;;;6.75;64.63;101673.16;5064192;28;20083;-67
2022/01/06 04:35:05;;;;;;;11.75;3.78;;;;;;;6.75;64.98;101678.50;5062118;28;20061;-67
2022/01/06 04:37:34;;;;;;;14.40;3.67;;;;;;;6.67;64.65;101666.03;5064803;28;20052;-68
2022/01/06 04:40:02;;;;;;;16.67;2.90;;;;;;;6.74;64.74;101683.00;5063520;28;20087;-67
2022/01/06 04:42:30;;;;;;;6.35;2.10;;;;;;;6.73;64.68;101683.19;5069179;28;20133;-68
2022/01/06 04:44:58;;;;;;;12.80;3.17;;;;;;;6.72;64.58;101690.38;5073353;28;20175;-67
2022/01/06 04:47:25;;;;;;;9.18;2.60;;;;;;;6.69;64.91;101690.72;5072086;28;20083;-67
2022/01/06 04:49:53;;;;;;;15.98;3.92;;;;;;;6.71;64.59;101696.72;5070099;28;20066;-67
2022/01/06 04:52:21;;;;;;;11.48;2.83;;;;;;;6.67;64.52;101690.06;5077834;28;20045;-67
2022/01/06 04:54:50;;;;;;;8.35;2.65;;;;;;;6.64;64.57;101687.75;5078385;28;20378;-67
2022/01/06 04:57:18;;;;;;;10.93;2.75;;;;;;;6.66;64.53;101691.06;5082123;28;20075;-67
2022/01/06 04:59:46;;;;;;;9.98;3.63;;;;;;;6.57;64.54;101680.59;5073866;28;20120;-67
2022/01/06 05:02:13;;;;;;;8.80;2.70;;;;;;;6.68;64.53;101690.91;5065639;28;20471;-67
2022/01/06 05:04:41;;;;;;;12.20;2.50;;;;;;;6.67;64.37;101702.59;5069375;28;20037;-67
2022/01/06 05:07:09;;;;;;;10.25;3.13;;;;;;;6.66;64.67;101703.59;5064557;28;20390;-67
2022/01/06 05:09:37;;;;;;;11.30;3.03;;;;;;;6.64;64.80;101710.94;5077511;28;20271;-68
2022/01/06 05:12:07;;;;;;;10.85;2.50;;;;;;;6.64;64.49;101718.97;5060351;28;20049;-67
2022/01/06 05:14:34;;;;;;;9.70;3.00;;;;;;;6.63;64.40;101709.28;5054341;28;20044;-68
2022/01/06 05:17:03;;;;;;;7.75;2.42;;;;;;;6.62;64.71;101718.31;5079444;28;20091;-67
2022/01/06 05:19:31;;;;;;;16.48;2.83;;;;;;;6.62;64.84;101713.78;5064944;28;20049;-67
2022/01/06 05:21:59;;;;;;;10.10;2.95;;;;;;;6.62;64.40;101721.81;5066145;28;20084;-68
2022/01/06 05:24:27;;;;;;;13.30;3.05;;;;;;;6.61;64.41;101725.50;5064813;28;20057;-68
2022/01/06 05:26:56;;;;;;;9.23;2.45;;;;;;;6.61;64.80;101730.00;5074312;28;20052;-68
2022/01/06 05:29:25;;;;;;;8.23;2.80;;;;;;;6.60;64.59;101731.00;5076683;28;20060;-67
2022/01/06 05:31:53;;;;;;;10.25;2.95;;;;;;;6.50;64.28;101713.34;5076664;28;20049;-67
2022/01/06 05:34:21;;;;;;;9.80;2.95;;;;;;;6.59;64.53;101737.34;5068696;28;20051;-68
2022/01/06 05:36:49;;;;;;;8.63;2.70;;;;;;;6.57;64.59;101739.38;5060435;28;20053;-67
2022/01/06 05:39:16;;;;;;;10.32;2.33;;;;;;;6.56;64.49;101732.34;5063475;28;20111;-68
2022/01/06 05:41:45;;;;;;;11.18;2.30;;;;;;;6.53;64.63;101731.69;5064921;28;20060;-68
2022/01/06 05:44:12;;;;;;;14.20;4.05;;;;;;;6.52;64.25;101748.72;5066142;28;20049;-67
2022/01/06 05:46:42;;;;;;;8.98;2.38;;;;;;;6.53;64.44;101736.22;5064722;28;20056;-68
2022/01/06 05:49:09;;;;;;;11.32;2.78;;;;;;;6.52;64.28;101746.06;5064924;28;20072;-68
2022/01/06 05:51:37;;;;;;;8.35;2.80;;;;;;;6.52;64.33;101753.25;5072819;28;20050;-67
2022/01/06 05:54:05;;;;;;;14.50;3.42;;;;;;;6.52;64.24;101755.91;5084545;28;20076;-67
2022/01/06 05:56:33;;;;;;;12.77;2.60;;;;;;;6.50;64.38;101753.41;5072165;28;20076;-67
2022/01/06 05:59:00;;;;;;;11.32;2.85;;;;;;;6.50;64.11;101749.91;5066794;28;20044;-68
2022/01/06 06:01:29;;;;;;;16.10;3.42;;;;;;;6.48;64.30;101754.59;5075035;28;20049;-67
2022/01/06 06:03:58;;;;;;;8.48;2.63;;;;;;;6.57;64.04;101752.72;5064027;28;20056;-68
2022/01/06 06:06:26;;;;;;;7.53;3.15;;;;;;;6.69;63.63;101759.34;5063585;28;20045;-67
2022/01/06 06:08:55;;;;;;;12.77;3.30;;;;;;;6.75;63.22;101746.13;5069011;28;20076;-67
2022/01/06 06:11:22;;;;;;;9.00;2.80;;;;;;;6.96;62.96;101761.50;5064374;28;20305;-68
2022/01/06 06:13:50;;;;;;;15.32;3.17;;;;;;;7.12;62.47;101764.09;5063328;28;20041;-68
2022/01/06 06:16:18;;;;;;;9.00;2.45;;;;;;;7.27;61.81;101766.84;4364884;28;10000768;-69
2022/01/06 06:18:46;;;;;;;7.50;2.15;;;;;;;7.40;61.33;101760.91;5078525;28;20056;-69
2022/01/06 06:21:15;;;;;;;15.63;2.95;;;;;;;7.53;60.30;101762.97;5066366;28;20502;-69
2022/01/06 06:23:42;;;;;;;9.32;2.78;;;;;;;7.68;60.44;101764.69;5058849;28;20083;-67
2022/01/06 06:26:11;;;;;;;12.48;2.72;;;;;;;7.83;59.71;101770.06;5059208;28;20115;-65
2022/01/06 06:28:39;;;;;;;7.30;2.72;;;;;;;7.75;60.13;101773.66;5059713;28;20136;-66
2022/01/06 06:31:06;;;;;;;8.93;2.58;;;;;;;7.66;59.92;101774.72;5060520;28;20087;-67
2022/01/06 06:33:34;;;;;;;9.85;2.50;;;;;;;7.52;60.32;101778.19;5066665;28;20087;-67
2022/01/06 06:36:02;;;;;;;11.35;2.80;;;;;;;7.40;60.59;101784.97;5058938;28;20080;-67
2022/01/06 06:38:31;;;;;;;10.18;2.90;;;;;;;7.42;60.29;101782.94;5050831;28;20439;-67
2022/01/06 06:40:59;;;;;;;7.88;2.83;;;;;;;7.47;60.28;101794.78;5058090;28;20056;-67
2022/01/06 06:43:26;;;;;;;10.63;2.60;;;;;;;7.42;60.46;101786.44;5058570;28;20060;-65
2022/01/06 06:45:54;;;;;;;13.13;2.75;;;;;;;7.35;60.38;101784.66;5060286;28;20053;-66
2022/01/06 06:48:24;;;;;;;15.38;3.53;;;;;;;7.23;60.73;101786.91;5068330;28;20060;-67
2022/01/06 06:50:52;;;;;;;11.20;2.72;;;;;;;7.16;61.11;101800.16;5065569;28;20774;-66
2022/01/06 06:53:20;;;;;;;12.55;2.53;;;;;;;7.07;61.34;101801.19;5061543;28;20049;-63
2022/01/06 06:55:49;;;;;;;16.33;3.30;;;;;;;7.02;61.71;101803.56;5066425;28;20072;-63
2022/01/06 06:58:17;;;;;;;12.70;3.13;;;;;;;6.97;61.98;101805.09;5057177;28;20550;-67
2022/01/06 07:00:44;;;;;;;11.70;3.97;;;;;;;6.93;62.05;101815.34;5063262;28;20133;-66
2022/01/06 07:03:12;;;;;;;7.93;2.85;;;;;;;6.90;62.21;101810.34;5059502;28;20045;-66
2022/01/06 07:05:40;;;;;;;9.43;3.88;;;;;;;6.85;62.47;101818.03;5059540;28;20049;-65
2022/01/06 07:08:08;;;;;;;13.75;2.92;;;;;;;6.80;62.43;101815.06;5064814;28;20083;-65
2022/01/06 07:10:36;;;;;;;7.95;2.53;;;;;;;6.75;62.47;101818.25;5074777;28;20139;-66
2022/01/06 07:13:05;;;;;;;12.95;2.97;;;;;;;6.71;62.86;101819.59;5067820;28;20394;-64
2022/01/06 07:15:34;;;;;;;10.27;2.90;;;;;;;6.66;63.04;101824.63;5073668;28;20068;-71
2022/01/06 07:18:01;;;;;;;12.63;3.05;;;;;;;6.64;63.14;101823.97;5067242;28;20052;-66
2022/01/06 07:20:29;;;;;;;19.95;3.53;;;;;;;6.60;63.38;101827.97;5068032;28;20045;-66
2022/01/06 07:22:57;;;;;;;9.55;3.08;;;;;;;6.57;63.43;101841.69;5074239;28;20044;-66
2022/01/06 07:25:25;;;;;;;10.60;3.20;;;;;;;6.57;62.96;101854.19;5078369;28;20088;-66
2022/01/06 07:27:52;;;;;;;9.52;2.72;;;;;;;6.51;63.46;101853.88;5074713;28;20470;-66
2022/01/06 07:30:22;;;;;;;8.55;2.97;;;;;;;6.50;63.35;101851.38;5082611;28;20056;-66
2022/01/06 07:32:51;;;;;;;7.95;2.67;;;;;;;6.47;63.57;101854.38;5077875;28;20052;-66
2022/01/06 07:35:21;;;;;;;10.65;3.20;;;;;;;6.45;63.62;101845.72;5063653;28;20080;-66
2022/01/06 07:37:49;;;;;;;11.50;3.22;;;;;;;6.43;63.57;101853.06;5059578;28;20045;-66
2022/01/06 07:40:19;;;;;;;17.08;3.83;;;;;;;6.42;63.44;101854.06;5066119;28;20075;-66
2022/01/06 07:42:47;;;;;;;14.35;3.40;;;;;;;6.40;63.58;101859.56;5082233;28;20045;-66
2022/01/06 07:45:15;;;;;;;13.52;3.75;;;;;;;6.39;63.92;101863.25;5066924;28;20049;-67
2022/01/06 07:47:55;;;;;;;14.48;4.28;;;;;;;6.30;63.89;101863.44;5068819;28;20049;-65
2022/01/06 07:50:25;;;;;;;19.63;3.40;;;;;;;6.28;64.25;101865.44;5070668;28;20118;-67
2022/01/06 07:52:53;;;;;;;15.05;3.78;;;;;;;6.30;64.14;101858.94;5073034;28;20090;-67
2022/01/06 07:55:20;;;;;;;16.17;4.55;;;;;;;6.24;64.02;101845.41;5071719;28;20037;-67
2022/01/06 07:57:50;;;;;;;12.00;3.55;;;;;;;6.34;63.83;101859.41;5060672;28;20044;-67
2022/01/06 08:00:19;;;;;;;12.68;3.17;;;;;;;6.35;63.58;101861.09;5070886;28;20534;-67
2022/01/06 08:02:48;;;;;;;12.18;3.60;;;;;;;6.36;63.83;101868.94;5066062;28;20041;-66
2022/01/06 08:05:18;;;;;;;14.23;4.82;;;;;;;6.36;63.43;101865.44;5070609;28;20071;-63
2022/01/06 08:07:46;;;;;;;13.85;4.07;;;;;;;6.36;63.59;101873.44;5066476;28;20387;-62
2022/01/06 08:10:14;;;;;;;15.50;4.22;;;;;;;6.35;63.34;101869.94;5072432;28;20052;-67
2022/01/06 08:12:42;;;;;;;14.50;3.95;;;;;;;6.34;63.30;101870.94;5067194;28;20048;-64
2022/01/06 08:15:10;;;;;;;15.00;3.92;;;;;;;6.29;63.35;101857.25;5074023;28;20075;-63
2022/01/06 08:17:38;;;;;;;11.50;3.53;;;;;;;6.33;63.44;101873.78;5068083;28;20090;-63
2022/01/06 08:20:10;;;;;;;14.27;4.85;;;;;;;6.32;63.21;101872.94;5082631;28;20067;-63
2022/01/06 08:22:38;;;;;;;17.73;4.90;;;;;;;6.32;63.37;101874.78;5081272;28;20106;-62
2022/01/06 08:25:08;;;;;;;14.05;3.88;;;;;;;6.31;63.42;101879.28;5082239;28;20118;-62
2022/01/06 08:27:36;;;;;;;16.30;4.25;;;;;;;6.32;63.40;101874.78;5081457;28;20091;-63
2022/01/06 08:30:05;;;;;;;13.75;5.10;;;;;;;6.32;63.43;101880.94;5081973;28;20071;-62
2022/01/06 08:32:33;;;;;;;18.67;4.28;;;;;;;6.30;63.28;101880.28;5069373;28;20053;-62
2022/01/06 08:35:01;;;;;;;12.25;4.88;;;;;;;6.31;63.48;101881.13;5085765;28;20048;-62
2022/01/06 08:37:31;;;;;;;13.88;4.32;;;;;;;6.27;63.42;101885.97;5083236;28;20088;-62
2022/01/06 08:39:58;;;;;;;15.57;5.07;;;;;;;6.28;63.61;101890.28;5073495;28;20593;-63
2022/01/06 08:42:26;;;;;;;15.52;4.60;;;;;;;6.29;63.53;101885.78;5073869;28;20064;-62
2022/01/06 08:44:54;;;;;;;12.45;4.00;;;;;;;6.29;63.86;101877.78;5064355;28;20049;-63
2022/01/06 08:47:22;;;;;;;15.35;4.47;;;;;;;6.26;63.94;101883.44;5065422;28;20156;-62
2022/01/06 08:49:50;;;;;;;15.40;4.78;;;;;;;6.47;63.14;101889.09;5066161;28;20040;-63
2022/01/06 08:52:17;;;;;;;12.27;4.35;;;;;;;6.61;62.49;101885.75;5067206;28;20140;-63
2022/01/06 08:54:46;;;;;;;13.93;4.50;;;;;;;6.79;62.11;101896.22;5067008;28;20545;-60
2022/01/06 08:57:14;;;;;;;15.60;5.97;;;;;;;6.88;61.74;101891.69;5062401;28;20114;-62
2022/01/06 08:59:42;;;;;;;17.00;5.28;;;;;;;6.91;61.92;101896.69;5065818;28;20380;-63
2022/01/06 09:02:11;;;;;;;12.82;4.97;;;;;;;6.85;61.94;101893.69;5064277;28;20068;-62
2022/01/06 09:04:38;;;;;;;12.43;4.70;;;;;;;6.74;61.77;101888.72;5067566;28;20051;-62
2022/01/06 09:07:06;;;;;;;18.55;4.50;;;;;;;6.73;62.73;101897.72;5066623;28;20454;-63
2022/01/06 09:09:34;;;;;;;18.48;5.25;;;;;;;6.64;62.92;101905.94;5064235;28;20068;-62
2022/01/06 09:12:05;;;;;;;13.57;4.90;;;;;;;6.61;63.00;101900.94;5063609;28;20053;-63
2022/01/06 09:14:32;;;;;;;16.00;5.95;;;;;;;6.56;63.35;101908.63;5061886;28;20071;-63
2022/01/06 09:17:01;;;;;;;16.08;4.95;;;;;;;6.51;63.48;101904.63;5065998;28;20054;-63
2022/01/06 09:19:29;;;;;;;13.80;4.72;;;;;;;6.48;63.51;101906.78;5065573;28;20401;-62
2022/01/06 09:21:56;;;;;;;14.70;5.18;;;;;;;6.46;63.67;101911.47;5070144;28;20060;-61
2022/01/06 09:24:24;;;;;;;12.85;5.47;;;;;;;6.44;63.72;101914.31;5085398;28;20079;-59
2022/01/06 09:26:52;;;;;;;9.02;4.55;;;;;;;6.41;63.80;101917.31;5063058;28;20048;-64
2022/01/06 09:29:21;;;;;;;13.50;4.57;;;;;;;6.40;63.95;101923.66;5085343;28;20114;-64
2022/01/06 09:31:49;;;;;;;9.55;5.40;;;;;;;6.40;64.19;101928.16;5073136;28;20041;-65
2022/01/06 09:34:17;;;;;;;17.02;4.78;;;;;;;6.37;64.22;101932.00;5065673;28;20095;-65
2022/01/06 09:36:45;;;;;;;16.15;5.47;;;;;;;6.36;64.12;101934.84;5065280;28;20446;-64
2022/01/06 09:39:13;;;;;;;16.33;4.15;;;;;;;6.36;64.38;101935.69;5074535;28;20048;-64
2022/01/06 09:41:41;;;;;;;13.40;5.30;;;;;;;6.36;64.29;101940.19;5070605;28;20053;-65
2022/01/06 09:44:09;;;;;;;12.80;4.78;;;;;;;6.35;64.39;101933.16;5084526;28;20048;-66
2022/01/06 09:47:00;;;;;;;11.00;4.18;;;;;;;6.28;64.63;101929.50;5084341;28;20049;-67
2022/01/06 09:49:28;;;;;;;17.02;5.47;;;;;;;6.33;64.80;101943.19;5084864;28;20044;-67
2022/01/06 09:51:56;;;;;;;13.25;4.50;;;;;;;6.35;64.72;101944.69;5078392;28;20041;-66
2022/01/06 09:54:24;;;;;;;9.68;4.40;;;;;;;6.33;64.75;101951.19;5061599;28;20041;-66
2022/01/06 09:56:52;;;;;;;13.63;4.30;;;;;;;6.32;64.84;101945.03;5060526;28;20148;-66
2022/01/06 09:59:19;;;;;;;11.73;4.65;;;;;;;6.32;64.97;101947.69;5063180;28;20107;-66
2022/01/06 10:01:47;;;;;;;12.80;4.47;;;;;;;6.33;65.11;101941.34;5058968;28;20049;-66
2022/01/06 10:04:25;;;;;;;14.85;4.60;;;;;;;6.36;65.00;101950.84;5064403;28;20045;-68
2022/01/06 10:07:01;;;;;;;20.33;6.50;;;;;;;6.33;65.06;101945.84;5083855;28;20056;-68
2022/01/06 10:09:30;;;;;;;15.82;4.68;;;;;;;6.35;65.12;101947.34;5073854;28;20486;-67
2022/01/06 10:11:59;;;;;;;10.63;4.93;;;;;;;6.36;64.80;101949.03;5070170;28;20052;-67
2022/01/06 10:14:40;;;;;;;9.80;4.30;;;;;;;6.38;65.09;101947.03;5075295;28;20057;-68
2022/01/06 10:17:08;;;;;;;15.27;5.78;;;;;;;6.36;65.00;101951.69;5084832;28;20048;-67
2022/01/06 10:19:40;;;;;;;13.27;4.55;;;;;;;6.36;65.68;101935.69;5071814;28;20068;-66
2022/01/06 10:22:14;;;;;;;17.60;4.93;;;;;;;6.37;65.54;101940.00;5083465;28;20048;-66
2022/01/06 10:24:44;;;;;;;13.02;5.00;;;;;;;6.39;65.59;101938.00;5084403;28;20057;-65
2022/01/06 10:27:13;;;;;;;12.52;4.63;;;;;;;6.40;65.53;101938.84;5066591;28;20067;-65
2022/01/06 10:29:43;;;;;;;15.32;4.30;;;;;;;6.39;65.66;101935.34;5067838;28;20053;-65
2022/01/06 10:32:12;;;;;;;13.55;4.97;;;;;;;6.40;65.67;101939.69;5074865;28;20076;-66
2022/01/06 10:34:43;;;;;;;12.35;3.88;;;;;;;6.43;65.65;101944.69;5079952;28;20048;-65
2022/01/06 10:37:19;;;;;;;17.48;5.03;;;;;;;6.43;65.59;101942.00;5066076;28;20064;-65
2022/01/06 10:39:49;;;;;;;17.25;4.18;;;;;;;6.42;65.82;101940.34;5070353;28;20052;-66
2022/01/06 10:42:21;;;;;;;11.02;4.35;;;;;;;6.42;65.70;101934.16;5083781;28;20049;-66
2022/01/06 10:44:51;;;;;;;12.77;4.60;;;;;;;6.42;65.95;101943.00;5068021;28;20041;-65
2022/01/06 10:47:30;;;;;;;12.82;4.38;;;;;;;6.41;66.20;101938.69;5064483;28;20052;-66
2022/01/06 10:50:15;;;;;;;14.07;5.88;;;;;;;6.41;65.90;101933.34;5063392;28;20529;-65
2022/01/06 10:52:44;;;;;;;13.30;4.28;;;;;;;6.44;66.18;101934.84;5082879;28;20044;-65
2022/01/06 10:55:14;;;;;;;11.18;4.22;;;;;;;6.47;66.00;101931.84;5072883;28;20053;-65
2022/01/06 10:57:53;;;;;;;17.38;4.63;;;;;;;6.48;66.27;101929.00;5057634;28;20064;-65
2022/01/06 11:00:24;;;;;;;12.27;3.83;;;;;;;6.50;66.48;101929.66;5079108;28;20052;-65
2022/01/06 11:02:51;;;;;;;23.33;5.30;;;;;;;6.52;66.29;101930.31;5073490;28;20506;-66
2022/01/06 11:05:21;;;;;;;12.95;3.78;;;;;;;6.52;66.10;101926.81;5062947;28;20053;-65
2022/01/06 11:07:49;;;;;;;12.52;3.88;;;;;;;6.52;66.19;101930.31;5063687;28;20073;-66
2022/01/06 11:10:21;;;;;;;9.70;4.18;;;;;;;6.55;66.71;101931.00;5083039;28;20044;-65
2022/01/06 11:12:50;;;;;;;10.90;4.10;;;;;;;6.57;66.36;101920.97;5058769;28;20076;-64
2022/01/06 11:15:17;;;;;;;14.70;3.90;;;;;;;6.55;66.53;101915.81;5083104;28;20052;-65
2022/01/06 11:17:49;;;;;;;15.15;4.10;;;;;;;6.58;66.51;101914.63;5083185;28;20052;-64
2022/01/06 11:20:25;;;;;;;10.52;4.05;;;;;;;6.58;66.75;101914.63;5076214;28;20081;-64
2022/01/06 11:22:58;;;;;;;14.02;4.13;;;;;;;6.58;66.87;101917.28;5069071;28;20049;-64
2022/01/06 11:25:35;;;;;;;14.90;4.07;;;;;;;6.60;66.29;101920.63;5072395;28;20539;-64
2022/01/06 11:28:05;;;;;;;14.82;4.00;;;;;;;6.61;66.55;101919.63;5056394;28;20048;-64
2022/01/06 11:30:41;;;;;;;12.63;4.13;;;;;;;6.63;67.00;101917.63;5082885;28;20086;-64
2022/01/06 11:33:09;;;;;;;14.10;4.47;;;;;;;6.63;66.81;101913.13;5081573;28;20072;-64
2022/01/06 11:35:52;;;;;;;10.45;3.20;;;;;;;6.64;66.80;101919.28;5067103;28;20098;-64
2022/01/06 11:38:23;;;;;;;12.80;4.57;;;;;;;6.66;66.82;101918.13;5067165;28;20056;-64
2022/01/06 11:40:52;;;;;;;15.32;3.70;;;;;;;6.66;66.82;101915.44;5082500;28;20053;-64